KLM6PT EGBB-EHAM
Flight info
| Callsign | KLM6PT |
|---|---|
| Flight time | 0h 46m |
| Altitude | 37000 |
| Route | UNGAP P155 SIVDA P137 REDFA |
| Aircraft | B738/M-SDE2E3FGHIRWXY/LB1 |
Departure
| Time | 2026-04-29 11:48 |
|---|---|
| Airport | Birmingham Airport (EGBB) |
Arrival
| Time | 2026-04-29 12:34 |
|---|---|
| Airport | Amsterdam Airport Schiphol (EHAM) |
| Time | Latitude | Longitude | Altitude | Speed | Heading |
|---|---|---|---|---|---|
| 2026-04-29 11:18 | 52.45346 | -1.73699 | 322 ft | 0 kts | 146° |
| 2026-04-29 11:40 | 52.45351 | -1.73705 | 322 ft | 2 kts | 146° |
| 2026-04-29 11:41 | 52.45367 | -1.73722 | 320 ft | 3 kts | 149° |
| 2026-04-29 11:41 | 52.45385 | -1.73738 | 319 ft | 3 kts | 160° |
| 2026-04-29 11:41 | 52.45403 | -1.73745 | 319 ft | 3 kts | 194° |
| 2026-04-29 11:41 | 52.45413 | -1.73737 | 321 ft | 1 kts | 235° |
| 2026-04-29 11:42 | 52.45414 | -1.73736 | 321 ft | 0 kts | 236° |
| 2026-04-29 11:44 | 52.45414 | -1.73737 | 321 ft | 0 kts | 236° |
| 2026-04-29 11:44 | 52.45382 | -1.73809 | 322 ft | 17 kts | 236° |
| 2026-04-29 11:44 | 52.45330 | -1.73934 | 321 ft | 5 kts | 236° |
| 2026-04-29 11:45 | 52.45283 | -1.73965 | 322 ft | 12 kts | 171° |
| 2026-04-29 11:45 | 52.45193 | -1.73876 | 322 ft | 18 kts | 146° |
| 2026-04-29 11:45 | 52.45078 | -1.73774 | 322 ft | 13 kts | 190° |
| 2026-04-29 11:45 | 52.45002 | -1.73838 | 322 ft | 14 kts | 165° |
| 2026-04-29 11:46 | 52.44897 | -1.73731 | 322 ft | 21 kts | 144° |
| 2026-04-29 11:46 | 52.44771 | -1.73711 | 323 ft | 18 kts | 204° |
| 2026-04-29 11:46 | 52.44638 | -1.73644 | 322 ft | 24 kts | 148° |
| 2026-04-29 11:46 | 52.44487 | -1.73475 | 323 ft | 27 kts | 146° |
| 2026-04-29 11:47 | 52.44376 | -1.73433 | 322 ft | 0 kts | 227° |
| 2026-04-29 11:47 | 52.44374 | -1.73437 | 321 ft | 2 kts | 227° |
| 2026-04-29 11:47 | 52.44329 | -1.73538 | 324 ft | 17 kts | 238° |
| 2026-04-29 11:47 | 52.44388 | -1.73692 | 324 ft | 26 kts | 326° |
| 2026-04-29 11:48 | 52.44803 | -1.74147 | 323 ft | 120 kts | 327° |
| 2026-04-29 11:48 | 52.45690 | -1.75134 | 427 ft | 185 kts | 334° |
| 2026-04-29 11:48 | 52.46854 | -1.76394 | 1328 ft | 208 kts | 333° |
| 2026-04-29 11:48 | 52.48129 | -1.77493 | 2471 ft | 200 kts | 349° |
| 2026-04-29 11:49 | 52.49482 | -1.78375 | 3147 ft | 219 kts | 336° |
| 2026-04-29 11:49 | 52.50812 | -1.79614 | 3822 ft | 217 kts | 354° |
| 2026-04-29 11:49 | 52.52210 | -1.79440 | 4471 ft | 198 kts | 36° |
| 2026-04-29 11:49 | 52.53195 | -1.77969 | 5180 ft | 192 kts | 65° |
| 2026-04-29 11:50 | 52.53719 | -1.75914 | 5772 ft | 204 kts | 81° |
| 2026-04-29 11:50 | 52.53799 | -1.73570 | 5979 ft | 207 kts | 99° |
| 2026-04-29 11:50 | 52.53513 | -1.71233 | 6003 ft | 209 kts | 101° |
| 2026-04-29 11:50 | 52.53235 | -1.68817 | 6108 ft | 225 kts | 101° |
| 2026-04-29 11:51 | 52.52938 | -1.66187 | 6686 ft | 243 kts | 101° |
| 2026-04-29 11:51 | 52.52627 | -1.63429 | 7629 ft | 246 kts | 101° |
| 2026-04-29 11:51 | 52.52311 | -1.60639 | 8604 ft | 250 kts | 101° |
| 2026-04-29 11:51 | 52.51993 | -1.57844 | 9540 ft | 254 kts | 101° |
| 2026-04-29 11:52 | 52.51662 | -1.54939 | 10475 ft | 259 kts | 101° |
| 2026-04-29 11:52 | 52.51316 | -1.51924 | 10858 ft | 281 kts | 101° |
| 2026-04-29 11:52 | 52.50937 | -1.48632 | 11044 ft | 309 kts | 101° |
| 2026-04-29 11:52 | 52.50523 | -1.45042 | 11432 ft | 328 kts | 101° |
| 2026-04-29 11:53 | 52.50099 | -1.41367 | 12189 ft | 333 kts | 101° |
| 2026-04-29 11:53 | 52.49661 | -1.37589 | 13004 ft | 338 kts | 101° |
| 2026-04-29 11:53 | 52.49216 | -1.33749 | 13812 ft | 344 kts | 101° |
| 2026-04-29 11:53 | 52.48769 | -1.29918 | 14596 ft | 347 kts | 101° |
| 2026-04-29 11:54 | 52.48311 | -1.26002 | 15420 ft | 349 kts | 101° |
| 2026-04-29 11:54 | 52.47850 | -1.22071 | 16174 ft | 352 kts | 101° |
| 2026-04-29 11:54 | 52.47388 | -1.18147 | 16931 ft | 355 kts | 101° |
| 2026-04-29 11:54 | 52.46917 | -1.14159 | 17695 ft | 357 kts | 101° |
| 2026-04-29 11:55 | 52.46439 | -1.10123 | 18438 ft | 360 kts | 101° |
| 2026-04-29 11:55 | 52.45957 | -1.06063 | 19083 ft | 364 kts | 101° |
| 2026-04-29 11:55 | 52.45474 | -1.02013 | 19689 ft | 367 kts | 101° |
| 2026-04-29 11:55 | 52.44977 | -0.97851 | 20231 ft | 372 kts | 102° |
| 2026-04-29 11:56 | 52.44468 | -0.93610 | 20673 ft | 381 kts | 102° |
| 2026-04-29 11:56 | 52.43959 | -0.89387 | 21272 ft | 383 kts | 102° |
| 2026-04-29 11:56 | 52.43439 | -0.85079 | 21907 ft | 385 kts | 102° |
| 2026-04-29 11:56 | 52.42916 | -0.80755 | 22463 ft | 388 kts | 102° |
| 2026-04-29 11:57 | 52.42385 | -0.76386 | 22983 ft | 392 kts | 102° |
| 2026-04-29 11:57 | 52.41847 | -0.71970 | 23528 ft | 396 kts | 102° |
| 2026-04-29 11:57 | 52.41308 | -0.67564 | 24053 ft | 399 kts | 103° |
| 2026-04-29 11:57 | 52.40759 | -0.63091 | 24504 ft | 401 kts | 103° |
| 2026-04-29 11:58 | 52.40207 | -0.58604 | 25002 ft | 402 kts | 103° |
| 2026-04-29 11:58 | 52.39650 | -0.54094 | 25475 ft | 404 kts | 103° |
| 2026-04-29 11:58 | 52.39095 | -0.49614 | 25908 ft | 406 kts | 103° |
| 2026-04-29 11:58 | 52.38530 | -0.45065 | 26339 ft | 408 kts | 103° |
| 2026-04-29 11:59 | 52.37959 | -0.40484 | 26766 ft | 410 kts | 103° |
| 2026-04-29 11:59 | 52.37393 | -0.35952 | 27161 ft | 412 kts | 103° |
| 2026-04-29 11:59 | 52.36813 | -0.31327 | 27571 ft | 413 kts | 103° |
| 2026-04-29 11:59 | 52.36229 | -0.26698 | 27961 ft | 415 kts | 103° |
| 2026-04-29 12:00 | 52.35766 | -0.22063 | 28323 ft | 419 kts | 97° |
| 2026-04-29 12:00 | 52.35694 | -0.17256 | 28695 ft | 422 kts | 92° |
| 2026-04-29 12:00 | 52.35699 | -0.12441 | 29079 ft | 423 kts | 92° |
| 2026-04-29 12:00 | 52.35686 | -0.07670 | 29543 ft | 422 kts | 92° |
| 2026-04-29 12:01 | 52.35655 | -0.02879 | 30136 ft | 418 kts | 93° |
| 2026-04-29 12:01 | 52.35611 | 0.01892 | 30598 ft | 417 kts | 93° |
| 2026-04-29 12:01 | 52.35383 | 0.06643 | 30849 ft | 419 kts | 98° |
| 2026-04-29 12:01 | 52.34982 | 0.11322 | 31221 ft | 418 kts | 99° |
| 2026-04-29 12:02 | 52.34543 | 0.16013 | 31716 ft | 415 kts | 99° |
| 2026-04-29 12:02 | 52.34101 | 0.20658 | 32224 ft | 411 kts | 99° |
| 2026-04-29 12:02 | 52.33663 | 0.25294 | 32658 ft | 410 kts | 99° |
| 2026-04-29 12:02 | 52.33235 | 0.29894 | 33040 ft | 409 kts | 99° |
| 2026-04-29 12:03 | 52.32817 | 0.34451 | 33436 ft | 408 kts | 99° |
| 2026-04-29 12:03 | 52.32398 | 0.39036 | 33860 ft | 406 kts | 99° |
| 2026-04-29 12:03 | 52.31988 | 0.43544 | 34295 ft | 404 kts | 99° |
| 2026-04-29 12:03 | 52.31573 | 0.48105 | 34631 ft | 403 kts | 99° |
| 2026-04-29 12:04 | 52.31157 | 0.52656 | 34862 ft | 405 kts | 99° |
| 2026-04-29 12:04 | 52.30737 | 0.57240 | 35042 ft | 407 kts | 99° |
| 2026-04-29 12:04 | 52.30320 | 0.61771 | 35329 ft | 407 kts | 99° |
| 2026-04-29 12:04 | 52.29893 | 0.66385 | 35330 ft | 412 kts | 99° |
| 2026-04-29 12:05 | 52.29036 | 0.75584 | 35347 ft | 409 kts | 99° |
| 2026-04-29 12:05 | 52.28181 | 0.84686 | 35353 ft | 404 kts | 99° |
| 2026-04-29 12:06 | 52.27321 | 0.93765 | 35353 ft | 404 kts | 99° |
| 2026-04-29 12:06 | 52.26455 | 1.02816 | 35334 ft | 404 kts | 99° |
| 2026-04-29 12:07 | 52.25579 | 1.11912 | 35351 ft | 405 kts | 99° |
| 2026-04-29 12:07 | 52.24698 | 1.20980 | 35353 ft | 407 kts | 99° |
| 2026-04-29 12:08 | 52.23797 | 1.30166 | 35711 ft | 411 kts | 99° |
| 2026-04-29 12:08 | 52.23347 | 1.34738 | 36050 ft | 409 kts | 99° |
| 2026-04-29 12:08 | 52.22892 | 1.39326 | 36399 ft | 407 kts | 99° |
| 2026-04-29 12:09 | 52.22438 | 1.43898 | 36710 ft | 407 kts | 99° |
| 2026-04-29 12:09 | 52.21988 | 1.48408 | 36955 ft | 408 kts | 99° |
| 2026-04-29 12:09 | 52.21527 | 1.53004 | 37094 ft | 411 kts | 99° |
| 2026-04-29 12:09 | 52.21062 | 1.57627 | 37293 ft | 411 kts | 99° |
| 2026-04-29 12:10 | 52.20129 | 1.66845 | 37362 ft | 415 kts | 99° |
| 2026-04-29 12:10 | 52.19342 | 1.74558 | 37349 ft | 411 kts | 99° |
| 2026-04-29 12:11 | 52.18399 | 1.83730 | 37356 ft | 408 kts | 99° |
| 2026-04-29 12:11 | 52.17459 | 1.92807 | 37356 ft | 407 kts | 99° |
| 2026-04-29 12:12 | 52.16514 | 2.01863 | 37343 ft | 407 kts | 99° |
| 2026-04-29 12:12 | 52.15551 | 2.11020 | 36705 ft | 420 kts | 99° |
| 2026-04-29 12:13 | 52.15054 | 2.15724 | 35946 ft | 421 kts | 99° |
| 2026-04-29 12:13 | 52.14554 | 2.20432 | 35208 ft | 420 kts | 99° |
| 2026-04-29 12:13 | 52.14053 | 2.25127 | 34494 ft | 420 kts | 99° |
| 2026-04-29 12:13 | 52.13550 | 2.29831 | 33692 ft | 420 kts | 99° |
| 2026-04-29 12:14 | 52.13053 | 2.34466 | 32901 ft | 421 kts | 99° |
| 2026-04-29 12:14 | 52.12546 | 2.39167 | 32111 ft | 420 kts | 99° |
| 2026-04-29 12:14 | 52.12068 | 2.43881 | 31349 ft | 420 kts | 95° |
| 2026-04-29 12:14 | 52.12202 | 2.48612 | 30611 ft | 420 kts | 80° |
| 2026-04-29 12:15 | 52.13040 | 2.53158 | 29786 ft | 420 kts | 67° |
| 2026-04-29 12:15 | 52.14417 | 2.57301 | 28985 ft | 421 kts | 61° |
| 2026-04-29 12:15 | 52.15957 | 2.61500 | 28185 ft | 433 kts | 60° |
| 2026-04-29 12:15 | 52.17519 | 2.65695 | 27410 ft | 441 kts | 60° |
| 2026-04-29 12:16 | 52.19117 | 2.70002 | 26643 ft | 444 kts | 60° |
| 2026-04-29 12:16 | 52.20713 | 2.74347 | 25889 ft | 445 kts | 60° |
| 2026-04-29 12:16 | 52.22279 | 2.78652 | 25169 ft | 442 kts | 61° |
| 2026-04-29 12:16 | 52.23829 | 2.82953 | 24456 ft | 438 kts | 61° |
| 2026-04-29 12:17 | 52.25359 | 2.87212 | 23731 ft | 431 kts | 61° |
| 2026-04-29 12:17 | 52.26868 | 2.91428 | 22912 ft | 426 kts | 61° |
| 2026-04-29 12:17 | 52.28350 | 2.95583 | 22123 ft | 420 kts | 61° |
| 2026-04-29 12:17 | 52.29819 | 2.99708 | 21341 ft | 416 kts | 60° |
| 2026-04-29 12:18 | 52.31253 | 3.03738 | 20604 ft | 411 kts | 60° |
| 2026-04-29 12:18 | 52.32685 | 3.07771 | 19871 ft | 407 kts | 60° |
| 2026-04-29 12:18 | 52.34091 | 3.11736 | 19170 ft | 404 kts | 60° |
| 2026-04-29 12:18 | 52.35496 | 3.15703 | 18435 ft | 399 kts | 60° |
| 2026-04-29 12:19 | 52.36868 | 3.19582 | 17649 ft | 395 kts | 60° |
| 2026-04-29 12:19 | 52.38246 | 3.23481 | 16870 ft | 392 kts | 60° |
| 2026-04-29 12:19 | 52.39593 | 3.27302 | 16122 ft | 390 kts | 60° |
| 2026-04-29 12:19 | 52.40955 | 3.31168 | 15378 ft | 388 kts | 61° |
| 2026-04-29 12:20 | 52.42285 | 3.34949 | 14662 ft | 384 kts | 61° |
| 2026-04-29 12:20 | 52.43611 | 3.38726 | 13930 ft | 380 kts | 61° |
| 2026-04-29 12:20 | 52.44866 | 3.42534 | 13136 ft | 375 kts | 68° |
| 2026-04-29 12:20 | 52.45583 | 3.46624 | 12375 ft | 370 kts | 78° |
| 2026-04-29 12:21 | 52.46123 | 3.50694 | 11629 ft | 367 kts | 78° |
| 2026-04-29 12:21 | 52.46668 | 3.54775 | 10946 ft | 363 kts | 77° |
| 2026-04-29 12:21 | 52.47211 | 3.58751 | 10698 ft | 359 kts | 77° |
| 2026-04-29 12:21 | 52.47765 | 3.62737 | 10578 ft | 358 kts | 77° |
| 2026-04-29 12:22 | 52.48326 | 3.66722 | 10456 ft | 357 kts | 77° |
| 2026-04-29 12:22 | 52.48881 | 3.70651 | 10374 ft | 359 kts | 77° |
| 2026-04-29 12:22 | 52.49444 | 3.74626 | 10220 ft | 355 kts | 77° |
| 2026-04-29 12:22 | 52.50001 | 3.78565 | 10038 ft | 349 kts | 77° |
| 2026-04-29 12:23 | 52.50551 | 3.82457 | 9868 ft | 350 kts | 77° |
| 2026-04-29 12:23 | 52.51095 | 3.86320 | 9701 ft | 349 kts | 77° |
| 2026-04-29 12:23 | 52.51640 | 3.90207 | 9530 ft | 348 kts | 77° |
| 2026-04-29 12:23 | 52.51898 | 3.94147 | 9335 ft | 348 kts | 94° |
| 2026-04-29 12:24 | 52.51280 | 3.97992 | 9192 ft | 349 kts | 112° |
| 2026-04-29 12:24 | 52.50021 | 4.01330 | 9015 ft | 352 kts | 127° |
| 2026-04-29 12:24 | 52.48367 | 4.04311 | 8863 ft | 352 kts | 130° |
| 2026-04-29 12:24 | 52.46677 | 4.07219 | 8684 ft | 352 kts | 131° |
| 2026-04-29 12:25 | 52.44976 | 4.10123 | 8536 ft | 351 kts | 131° |
| 2026-04-29 12:25 | 52.43304 | 4.12989 | 8369 ft | 350 kts | 130° |
| 2026-04-29 12:25 | 52.39972 | 4.18741 | 7981 ft | 340 kts | 130° |
| 2026-04-29 12:26 | 52.38385 | 4.21490 | 7588 ft | 324 kts | 130° |
| 2026-04-29 12:26 | 52.36881 | 4.24095 | 7208 ft | 305 kts | 130° |
| 2026-04-29 12:26 | 52.35459 | 4.26562 | 6834 ft | 289 kts | 130° |
| 2026-04-29 12:26 | 52.34112 | 4.28899 | 6445 ft | 276 kts | 129° |
| 2026-04-29 12:27 | 52.32817 | 4.31147 | 6055 ft | 265 kts | 129° |
| 2026-04-29 12:27 | 52.31583 | 4.33288 | 5676 ft | 256 kts | 129° |
| 2026-04-29 12:27 | 52.30374 | 4.35385 | 5288 ft | 248 kts | 129° |
| 2026-04-29 12:27 | 52.29225 | 4.37375 | 4936 ft | 237 kts | 129° |
| 2026-04-29 12:28 | 52.28121 | 4.39284 | 4543 ft | 224 kts | 129° |
| 2026-04-29 12:28 | 52.27080 | 4.41087 | 4154 ft | 214 kts | 129° |
| 2026-04-29 12:28 | 52.26076 | 4.42822 | 3765 ft | 206 kts | 129° |
| 2026-04-29 12:28 | 52.25100 | 4.44510 | 3387 ft | 203 kts | 129° |
| 2026-04-29 12:29 | 52.24117 | 4.46198 | 3021 ft | 206 kts | 129° |
| 2026-04-29 12:29 | 52.23117 | 4.47929 | 2662 ft | 209 kts | 129° |
| 2026-04-29 12:29 | 52.22136 | 4.49615 | 2270 ft | 202 kts | 128° |
| 2026-04-29 12:29 | 52.21428 | 4.51438 | 1989 ft | 183 kts | 96° |
| 2026-04-29 12:30 | 52.21637 | 4.53318 | 1971 ft | 163 kts | 69° |
| 2026-04-29 12:30 | 52.22066 | 4.55015 | 1962 ft | 158 kts | 67° |
| 2026-04-29 12:30 | 52.22521 | 4.56605 | 1978 ft | 156 kts | 66° |
| 2026-04-29 12:30 | 52.23020 | 4.58203 | 1971 ft | 159 kts | 63° |
| 2026-04-29 12:31 | 52.23598 | 4.59819 | 1954 ft | 168 kts | 60° |
| 2026-04-29 12:31 | 52.24219 | 4.61456 | 1748 ft | 166 kts | 60° |
| 2026-04-29 12:31 | 52.24805 | 4.62988 | 1541 ft | 154 kts | 60° |
| 2026-04-29 12:31 | 52.25344 | 4.64402 | 1323 ft | 139 kts | 60° |
| 2026-04-29 12:32 | 52.25824 | 4.65640 | 1232 ft | 117 kts | 59° |
| 2026-04-29 12:32 | 52.26247 | 4.66727 | 1154 ft | 115 kts | 59° |
| 2026-04-29 12:32 | 52.26650 | 4.67815 | 896 ft | 111 kts | 59° |
| 2026-04-29 12:32 | 52.27064 | 4.68923 | 740 ft | 117 kts | 59° |
| 2026-04-29 12:33 | 52.27510 | 4.70057 | 608 ft | 119 kts | 59° |
| 2026-04-29 12:33 | 52.27938 | 4.71207 | 441 ft | 121 kts | 56° |
| 2026-04-29 12:33 | 52.28386 | 4.72345 | 241 ft | 118 kts | 57° |
| 2026-04-29 12:33 | 52.28809 | 4.73460 | 67 ft | 115 kts | 58° |
| 2026-04-29 12:34 | 52.29200 | 4.74474 | -1 ft | 95 kts | 57° |
| 2026-04-29 12:34 | 52.29519 | 4.75306 | -3 ft | 78 kts | 57° |
| 2026-04-29 12:34 | 52.29781 | 4.75995 | -4 ft | 66 kts | 60° |
| 2026-04-29 12:34 | 52.30003 | 4.76505 | -3 ft | 34 kts | 37° |
| 2026-04-29 12:35 | 52.30175 | 4.76665 | -2 ft | 18 kts | 27° |
| 2026-04-29 12:35 | 52.30272 | 4.76747 | -2 ft | 15 kts | 34° |
| 2026-04-29 12:35 | 52.30333 | 4.76874 | -2 ft | 14 kts | 58° |
| 2026-04-29 12:35 | 52.30384 | 4.77006 | -2 ft | 14 kts | 57° |
| 2026-04-29 12:36 | 52.30442 | 4.77158 | -2 ft | 19 kts | 58° |
| 2026-04-29 12:36 | 52.30525 | 4.77374 | -2 ft | 24 kts | 59° |
| 2026-04-29 12:36 | 52.30628 | 4.77571 | -2 ft | 23 kts | 17° |
| 2026-04-29 12:36 | 52.30785 | 4.77596 | -2 ft | 22 kts | 2° |
| 2026-04-29 12:37 | 52.30938 | 4.77612 | -2 ft | 22 kts | 4° |
| 2026-04-29 12:37 | 52.31043 | 4.77510 | -2 ft | 19 kts | 298° |
| 2026-04-29 12:37 | 52.31073 | 4.77294 | -2 ft | 20 kts | 274° |
| 2026-04-29 12:37 | 52.31081 | 4.77079 | -2 ft | 18 kts | 272° |
| 2026-04-29 12:38 | 52.31070 | 4.76871 | -2 ft | 13 kts | 231° |
| 2026-04-29 12:38 | 52.30989 | 4.76813 | -2 ft | 12 kts | 174° |
| 2026-04-29 12:38 | 52.30946 | 4.76862 | -2 ft | 3 kts | 138° |
| 2026-04-29 12:38 | 52.30930 | 4.76885 | -2 ft | 2 kts | 137° |
| 2026-04-29 12:39 | 52.30928 | 4.76889 | -2 ft | 0 kts | 137° |